sensor_id;sensor_type;location;lat;lon;timestamp;P1;durP1;ratioP1;P2;durP2;ratioP2
16115;SDS011;8162;47.104;15.432;2023-03-01T00:02:34;21.33;;;14.93;;
16115;SDS011;8162;47.104;15.432;2023-03-01T00:05:35;18.50;;;13.73;;
16115;SDS011;8162;47.104;15.432;2023-03-01T00:08:36;20.57;;;14.30;;
16115;SDS011;8162;47.104;15.432;2023-03-01T00:11:37;18.40;;;13.23;;
16115;SDS011;8162;47.104;15.432;2023-03-01T00:14:38;20.33;;;13.90;;
16115;SDS011;8162;47.104;15.432;2023-03-01T00:17:38;20.43;;;13.90;;
16115;SDS011;8162;47.104;15.432;2023-03-01T00:20:39;17.63;;;14.13;;
16115;SDS011;8162;47.104;15.432;2023-03-01T00:23:40;20.60;;;13.77;;
16115;SDS011;8162;47.104;15.432;2023-03-01T00:26:41;15.37;;;12.40;;
16115;SDS011;8162;47.104;15.432;2023-03-01T00:29:42;17.00;;;12.80;;
16115;SDS011;8162;47.104;15.432;2023-03-01T00:32:42;16.37;;;12.47;;
16115;SDS011;8162;47.104;15.432;2023-03-01T00:35:43;20.27;;;13.90;;
16115;SDS011;8162;47.104;15.432;2023-03-01T00:38:44;19.10;;;12.80;;
16115;SDS011;8162;47.104;15.432;2023-03-01T00:41:45;18.87;;;13.03;;
16115;SDS011;8162;47.104;15.432;2023-03-01T00:44:46;18.57;;;12.97;;
16115;SDS011;8162;47.104;15.432;2023-03-01T00:47:47;17.50;;;12.53;;
16115;SDS011;8162;47.104;15.432;2023-03-01T00:50:49;19.03;;;14.07;;
16115;SDS011;8162;47.104;15.432;2023-03-01T00:53:50;19.13;;;14.03;;
16115;SDS011;8162;47.104;15.432;2023-03-01T00:56:52;19.87;;;14.10;;
16115;SDS011;8162;47.104;15.432;2023-03-01T00:59:53;19.10;;;13.10;;
16115;SDS011;8162;47.104;15.432;2023-03-01T01:02:53;18.83;;;13.50;;
16115;SDS011;8162;47.104;15.432;2023-03-01T01:05:54;19.87;;;13.27;;
16115;SDS011;8162;47.104;15.432;2023-03-01T01:08:55;19.13;;;13.40;;
16115;SDS011;8162;47.104;15.432;2023-03-01T01:11:56;19.83;;;13.83;;
16115;SDS011;8162;47.104;15.432;2023-03-01T01:14:57;21.43;;;14.50;;
16115;SDS011;8162;47.104;15.432;2023-03-01T01:17:58;20.50;;;13.63;;
16115;SDS011;8162;47.104;15.432;2023-03-01T01:21:02;17.47;;;13.53;;
16115;SDS011;8162;47.104;15.432;2023-03-01T01:24:04;19.20;;;14.37;;
16115;SDS011;8162;47.104;15.432;2023-03-01T01:27:05;20.37;;;14.23;;
16115;SDS011;8162;47.104;15.432;2023-03-01T01:30:07;18.83;;;12.73;;
16115;SDS011;8162;47.104;15.432;2023-03-01T01:33:08;20.33;;;14.27;;
16115;SDS011;8162;47.104;15.432;2023-03-01T01:36:09;18.40;;;13.27;;
16115;SDS011;8162;47.104;15.432;2023-03-01T01:39:10;17.17;;;13.30;;
16115;SDS011;8162;47.104;15.432;2023-03-01T01:42:17;17.10;;;12.00;;
16115;SDS011;8162;47.104;15.432;2023-03-01T01:45:29;19.63;;;12.50;;
16115;SDS011;8162;47.104;15.432;2023-03-01T01:48:34;16.70;;;11.97;;
16115;SDS011;8162;47.104;15.432;2023-03-01T01:51:48;17.40;;;12.80;;
16115;SDS011;8162;47.104;15.432;2023-03-01T01:58:04;19.67;;;13.03;;
16115;SDS011;8162;47.104;15.432;2023-03-01T02:01:07;18.70;;;12.57;;
16115;SDS011;8162;47.104;15.432;2023-03-01T02:04:08;19.73;;;12.17;;
16115;SDS011;8162;47.104;15.432;2023-03-01T02:07:14;20.07;;;13.40;;
16115;SDS011;8162;47.104;15.432;2023-03-01T02:10:20;20.27;;;13.20;;
16115;SDS011;8162;47.104;15.432;2023-03-01T02:13:22;19.10;;;14.70;;
16115;SDS011;8162;47.104;15.432;2023-03-01T02:16:23;21.97;;;15.40;;
16115;SDS011;8162;47.104;15.432;2023-03-01T02:19:32;21.13;;;14.87;;
16115;SDS011;8162;47.104;15.432;2023-03-01T02:22:44;19.83;;;14.40;;
16115;SDS011;8162;47.104;15.432;2023-03-01T02:25:54;20.70;;;13.93;;
16115;SDS011;8162;47.104;15.432;2023-03-01T02:29:04;18.87;;;14.53;;
16115;SDS011;8162;47.104;15.432;2023-03-01T02:32:05;19.20;;;13.53;;
16115;SDS011;8162;47.104;15.432;2023-03-01T02:35:08;19.73;;;13.93;;
16115;SDS011;8162;47.104;15.432;2023-03-01T02:38:11;19.43;;;13.53;;
16115;SDS011;8162;47.104;15.432;2023-03-01T02:41:13;18.73;;;13.30;;
16115;SDS011;8162;47.104;15.432;2023-03-01T02:44:17;18.63;;;13.47;;
16115;SDS011;8162;47.104;15.432;2023-03-01T02:47:19;18.80;;;12.37;;
16115;SDS011;8162;47.104;15.432;2023-03-01T02:57:12;16.83;;;12.00;;
16115;SDS011;8162;47.104;15.432;2023-03-01T03:00:35;20.63;;;13.60;;
16115;SDS011;8162;47.104;15.432;2023-03-01T03:03:41;20.37;;;13.67;;
16115;SDS011;8162;47.104;15.432;2023-03-01T03:06:43;18.67;;;13.13;;
16115;SDS011;8162;47.104;15.432;2023-03-01T03:09:44;20.03;;;13.73;;
16115;SDS011;8162;47.104;15.432;2023-03-01T03:12:52;19.67;;;13.27;;
16115;SDS011;8162;47.104;15.432;2023-03-01T03:15:55;18.10;;;12.23;;
16115;SDS011;8162;47.104;15.432;2023-03-01T03:18:56;18.73;;;12.77;;
16115;SDS011;8162;47.104;15.432;2023-03-01T03:22:04;18.07;;;13.43;;
16115;SDS011;8162;47.104;15.432;2023-03-01T03:25:06;17.87;;;13.33;;
16115;SDS011;8162;47.104;15.432;2023-03-01T03:28:11;20.37;;;14.33;;
16115;SDS011;8162;47.104;15.432;2023-03-01T03:31:12;20.17;;;14.27;;
16115;SDS011;8162;47.104;15.432;2023-03-01T03:34:13;17.97;;;13.60;;
16115;SDS011;8162;47.104;15.432;2023-03-01T03:37:17;20.43;;;13.43;;
16115;SDS011;8162;47.104;15.432;2023-03-01T03:40:39;18.07;;;12.13;;
16115;SDS011;8162;47.104;15.432;2023-03-01T03:43:41;18.63;;;13.43;;
16115;SDS011;8162;47.104;15.432;2023-03-01T03:46:43;18.63;;;13.70;;
16115;SDS011;8162;47.104;15.432;2023-03-01T03:49:44;17.77;;;13.80;;
16115;SDS011;8162;47.104;15.432;2023-03-01T03:52:44;17.17;;;13.10;;
16115;SDS011;8162;47.104;15.432;2023-03-01T03:55:45;17.37;;;12.90;;
16115;SDS011;8162;47.104;15.432;2023-03-01T03:58:49;21.00;;;13.43;;
16115;SDS011;8162;47.104;15.432;2023-03-01T04:01:49;20.27;;;13.87;;
16115;SDS011;8162;47.104;15.432;2023-03-01T04:04:50;17.63;;;13.60;;
16115;SDS011;8162;47.104;15.432;2023-03-01T04:07:51;19.87;;;14.53;;
16115;SDS011;8162;47.104;15.432;2023-03-01T04:11:01;18.33;;;12.67;;
16115;SDS011;8162;47.104;15.432;2023-03-01T04:14:23;19.57;;;13.07;;
16115;SDS011;8162;47.104;15.432;2023-03-01T04:17:24;17.70;;;13.27;;
16115;SDS011;8162;47.104;15.432;2023-03-01T04:20:26;18.07;;;13.10;;
16115;SDS011;8162;47.104;15.432;2023-03-01T04:23:28;17.70;;;12.67;;
16115;SDS011;8162;47.104;15.432;2023-03-01T04:26:29;21.23;;;14.47;;
16115;SDS011;8162;47.104;15.432;2023-03-01T04:29:29;18.07;;;13.30;;
16115;SDS011;8162;47.104;15.432;2023-03-01T04:32:30;20.40;;;13.77;;
16115;SDS011;8162;47.104;15.432;2023-03-01T04:35:31;21.43;;;14.20;;
16115;SDS011;8162;47.104;15.432;2023-03-01T04:38:32;19.50;;;13.10;;
16115;SDS011;8162;47.104;15.432;2023-03-01T04:41:33;18.73;;;14.13;;
16115;SDS011;8162;47.104;15.432;2023-03-01T04:44:34;18.73;;;13.73;;
16115;SDS011;8162;47.104;15.432;2023-03-01T04:47:35;19.57;;;13.60;;
16115;SDS011;8162;47.104;15.432;2023-03-01T04:50:38;19.80;;;14.40;;
16115;SDS011;8162;47.104;15.432;2023-03-01T04:53:39;20.80;;;13.60;;
16115;SDS011;8162;47.104;15.432;2023-03-01T04:56:40;20.13;;;13.97;;
16115;SDS011;8162;47.104;15.432;2023-03-01T04:59:41;17.43;;;13.27;;
16115;SDS011;8162;47.104;15.432;2023-03-01T05:02:42;20.27;;;14.30;;
16115;SDS011;8162;47.104;15.432;2023-03-01T05:05:44;16.50;;;12.80;;
16115;SDS011;8162;47.104;15.432;2023-03-01T05:08:46;18.47;;;13.20;;
16115;SDS011;8162;47.104;15.432;2023-03-01T05:11:46;20.37;;;14.27;;
16115;SDS011;8162;47.104;15.432;2023-03-01T05:14:47;18.83;;;13.70;;
16115;SDS011;8162;47.104;15.432;2023-03-01T05:17:48;18.37;;;13.57;;
16115;SDS011;8162;47.104;15.432;2023-03-01T05:20:49;17.77;;;12.73;;
16115;SDS011;8162;47.104;15.432;2023-03-01T05:23:50;19.10;;;13.40;;
16115;SDS011;8162;47.104;15.432;2023-03-01T05:26:51;19.53;;;14.33;;
16115;SDS011;8162;47.104;15.432;2023-03-01T05:29:55;18.97;;;13.47;;
16115;SDS011;8162;47.104;15.432;2023-03-01T05:32:56;20.43;;;14.07;;
16115;SDS011;8162;47.104;15.432;2023-03-01T05:35:59;19.10;;;13.73;;
16115;SDS011;8162;47.104;15.432;2023-03-01T05:38:59;18.60;;;14.53;;
16115;SDS011;8162;47.104;15.432;2023-03-01T05:42:00;18.57;;;14.80;;
16115;SDS011;8162;47.104;15.432;2023-03-01T05:45:01;20.03;;;13.63;;
16115;SDS011;8162;47.104;15.432;2023-03-01T05:48:02;21.10;;;14.63;;
16115;SDS011;8162;47.104;15.432;2023-03-01T05:51:04;19.73;;;14.67;;
16115;SDS011;8162;47.104;15.432;2023-03-01T05:54:06;18.87;;;14.00;;
16115;SDS011;8162;47.104;15.432;2023-03-01T05:57:07;20.23;;;14.20;;
16115;SDS011;8162;47.104;15.432;2023-03-01T06:00:08;18.00;;;14.23;;
16115;SDS011;8162;47.104;15.432;2023-03-01T06:03:10;17.80;;;13.13;;
16115;SDS011;8162;47.104;15.432;2023-03-01T06:06:12;21.07;;;14.43;;
16115;SDS011;8162;47.104;15.432;2023-03-01T06:09:13;17.87;;;13.17;;
16115;SDS011;8162;47.104;15.432;2023-03-01T06:12:14;20.40;;;13.60;;
16115;SDS011;8162;47.104;15.432;2023-03-01T06:15:15;21.30;;;14.83;;
16115;SDS011;8162;47.104;15.432;2023-03-01T06:18:16;17.57;;;14.10;;
16115;SDS011;8162;47.104;15.432;2023-03-01T06:21:17;20.00;;;14.10;;
16115;SDS011;8162;47.104;15.432;2023-03-01T06:24:18;20.90;;;15.17;;
16115;SDS011;8162;47.104;15.432;2023-03-01T06:27:19;19.60;;;14.07;;
16115;SDS011;8162;47.104;15.432;2023-03-01T06:30:20;23.27;;;15.60;;
16115;SDS011;8162;47.104;15.432;2023-03-01T06:33:22;20.03;;;14.20;;
16115;SDS011;8162;47.104;15.432;2023-03-01T06:36:24;20.27;;;14.00;;
16115;SDS011;8162;47.104;15.432;2023-03-01T06:39:25;14.63;;;12.37;;
16115;SDS011;8162;47.104;15.432;2023-03-01T06:42:27;18.93;;;14.17;;
16115;SDS011;8162;47.104;15.432;2023-03-01T06:45:28;17.77;;;13.40;;
16115;SDS011;8162;47.104;15.432;2023-03-01T06:48:29;18.37;;;13.37;;
16115;SDS011;8162;47.104;15.432;2023-03-01T06:51:30;16.97;;;12.80;;
16115;SDS011;8162;47.104;15.432;2023-03-01T06:54:30;18.83;;;14.17;;
16115;SDS011;8162;47.104;15.432;2023-03-01T06:57:31;19.37;;;13.00;;
16115;SDS011;8162;47.104;15.432;2023-03-01T07:00:32;19.87;;;13.43;;
16115;SDS011;8162;47.104;15.432;2023-03-01T07:03:33;17.20;;;13.00;;
16115;SDS011;8162;47.104;15.432;2023-03-01T07:06:33;17.87;;;13.20;;
16115;SDS011;8162;47.104;15.432;2023-03-01T07:09:34;19.77;;;13.43;;
16115;SDS011;8162;47.104;15.432;2023-03-01T07:12:35;17.93;;;12.87;;
16115;SDS011;8162;47.104;15.432;2023-03-01T07:15:36;18.57;;;14.17;;
16115;SDS011;8162;47.104;15.432;2023-03-01T07:18:36;17.43;;;13.37;;
16115;SDS011;8162;47.104;15.432;2023-03-01T07:21:37;19.47;;;13.13;;
16115;SDS011;8162;47.104;15.432;2023-03-01T07:24:41;19.63;;;14.37;;
16115;SDS011;8162;47.104;15.432;2023-03-01T07:27:42;18.97;;;13.63;;
16115;SDS011;8162;47.104;15.432;2023-03-01T07:30:42;23.17;;;16.67;;
16115;SDS011;8162;47.104;15.432;2023-03-01T07:33:43;21.67;;;15.10;;
16115;SDS011;8162;47.104;15.432;2023-03-01T07:36:44;22.40;;;16.63;;
16115;SDS011;8162;47.104;15.432;2023-03-01T07:39:45;23.90;;;16.27;;
16115;SDS011;8162;47.104;15.432;2023-03-01T07:42:46;20.17;;;15.03;;
16115;SDS011;8162;47.104;15.432;2023-03-01T07:45:46;20.53;;;14.23;;
16115;SDS011;8162;47.104;15.432;2023-03-01T07:48:47;20.80;;;14.97;;
16115;SDS011;8162;47.104;15.432;2023-03-01T07:51:48;20.67;;;14.87;;
16115;SDS011;8162;47.104;15.432;2023-03-01T07:54:48;24.93;;;17.07;;
16115;SDS011;8162;47.104;15.432;2023-03-01T07:57:49;20.63;;;15.17;;
16115;SDS011;8162;47.104;15.432;2023-03-01T08:00:50;23.37;;;15.43;;
16115;SDS011;8162;47.104;15.432;2023-03-01T08:03:50;20.50;;;15.37;;
16115;SDS011;8162;47.104;15.432;2023-03-01T08:06:51;23.33;;;16.13;;
16115;SDS011;8162;47.104;15.432;2023-03-01T08:09:53;23.10;;;16.83;;
16115;SDS011;8162;47.104;15.432;2023-03-01T08:12:53;21.97;;;16.00;;
16115;SDS011;8162;47.104;15.432;2023-03-01T08:15:54;22.07;;;16.50;;
16115;SDS011;8162;47.104;15.432;2023-03-01T08:19:06;21.00;;;16.37;;
16115;SDS011;8162;47.104;15.432;2023-03-01T08:22:08;23.77;;;16.60;;
16115;SDS011;8162;47.104;15.432;2023-03-01T08:25:09;25.43;;;16.40;;
16115;SDS011;8162;47.104;15.432;2023-03-01T08:28:10;26.60;;;17.47;;
16115;SDS011;8162;47.104;15.432;2023-03-01T08:34:20;27.33;;;16.93;;
16115;SDS011;8162;47.104;15.432;2023-03-01T08:37:21;23.30;;;17.00;;
16115;SDS011;8162;47.104;15.432;2023-03-01T08:40:21;25.03;;;16.17;;
16115;SDS011;8162;47.104;15.432;2023-03-01T08:43:22;19.43;;;14.50;;
16115;SDS011;8162;47.104;15.432;2023-03-01T08:46:28;19.43;;;14.33;;
16115;SDS011;8162;47.104;15.432;2023-03-01T08:49:31;18.83;;;14.03;;
16115;SDS011;8162;47.104;15.432;2023-03-01T08:52:32;21.00;;;14.03;;
16115;SDS011;8162;47.104;15.432;2023-03-01T08:55:33;17.70;;;14.03;;
16115;SDS011;8162;47.104;15.432;2023-03-01T08:58:34;17.20;;;13.17;;
16115;SDS011;8162;47.104;15.432;2023-03-01T09:01:35;18.97;;;13.63;;
16115;SDS011;8162;47.104;15.432;2023-03-01T09:04:37;22.97;;;15.03;;
16115;SDS011;8162;47.104;15.432;2023-03-01T09:07:37;17.90;;;13.40;;
16115;SDS011;8162;47.104;15.432;2023-03-01T09:10:38;18.47;;;13.43;;
16115;SDS011;8162;47.104;15.432;2023-03-01T09:13:39;19.63;;;13.93;;
16115;SDS011;8162;47.104;15.432;2023-03-01T09:16:40;19.30;;;14.37;;
16115;SDS011;8162;47.104;15.432;2023-03-01T09:19:40;20.47;;;15.60;;
16115;SDS011;8162;47.104;15.432;2023-03-01T09:22:41;23.77;;;16.43;;
16115;SDS011;8162;47.104;15.432;2023-03-01T09:25:42;23.53;;;15.07;;
16115;SDS011;8162;47.104;15.432;2023-03-01T09:28:43;22.67;;;16.10;;
16115;SDS011;8162;47.104;15.432;2023-03-01T09:31:48;20.17;;;16.43;;
16115;SDS011;8162;47.104;15.432;2023-03-01T09:34:49;20.70;;;14.77;;
16115;SDS011;8162;47.104;15.432;2023-03-01T09:38:04;19.60;;;14.87;;
16115;SDS011;8162;47.104;15.432;2023-03-01T09:47:26;21.23;;;15.20;;
16115;SDS011;8162;47.104;15.432;2023-03-01T09:50:35;20.70;;;15.37;;
16115;SDS011;8162;47.104;15.432;2023-03-01T09:53:39;21.50;;;14.60;;
16115;SDS011;8162;47.104;15.432;2023-03-01T09:56:41;19.50;;;15.60;;
16115;SDS011;8162;47.104;15.432;2023-03-01T10:03:15;18.90;;;14.23;;
16115;SDS011;8162;47.104;15.432;2023-03-01T10:06:31;20.30;;;12.93;;
16115;SDS011;8162;47.104;15.432;2023-03-01T10:09:33;17.17;;;13.83;;
16115;SDS011;8162;47.104;15.432;2023-03-01T10:12:37;18.47;;;13.80;;
16115;SDS011;8162;47.104;15.432;2023-03-01T10:15:44;18.00;;;13.93;;
16115;SDS011;8162;47.104;15.432;2023-03-01T10:19:02;21.27;;;14.57;;
16115;SDS011;8162;47.104;15.432;2023-03-01T10:22:09;18.20;;;14.87;;
16115;SDS011;8162;47.104;15.432;2023-03-01T10:25:24;21.17;;;14.17;;
16115;SDS011;8162;47.104;15.432;2023-03-01T10:31:51;20.57;;;14.97;;
16115;SDS011;8162;47.104;15.432;2023-03-01T10:34:53;21.13;;;14.80;;
16115;SDS011;8162;47.104;15.432;2023-03-01T10:38:07;17.90;;;14.53;;
16115;SDS011;8162;47.104;15.432;2023-03-01T10:41:09;20.27;;;14.47;;
16115;SDS011;8162;47.104;15.432;2023-03-01T10:44:10;19.10;;;14.97;;
16115;SDS011;8162;47.104;15.432;2023-03-01T10:47:45;20.17;;;14.97;;
16115;SDS011;8162;47.104;15.432;2023-03-01T10:50:46;20.07;;;14.33;;
16115;SDS011;8162;47.104;15.432;2023-03-01T10:53:49;21.40;;;15.27;;
16115;SDS011;8162;47.104;15.432;2023-03-01T10:56:53;23.67;;;16.33;;
16115;SDS011;8162;47.104;15.432;2023-03-01T11:03:23;20.23;;;14.93;;
16115;SDS011;8162;47.104;15.432;2023-03-01T11:06:28;24.60;;;15.93;;
16115;SDS011;8162;47.104;15.432;2023-03-01T11:09:32;22.90;;;15.10;;
16115;SDS011;8162;47.104;15.432;2023-03-01T11:12:39;25.30;;;16.53;;
16115;SDS011;8162;47.104;15.432;2023-03-01T11:15:40;22.63;;;17.20;;
16115;SDS011;8162;47.104;15.432;2023-03-01T11:18:42;21.47;;;16.60;;
16115;SDS011;8162;47.104;15.432;2023-03-01T11:21:54;23.40;;;16.57;;
16115;SDS011;8162;47.104;15.432;2023-03-01T11:25:21;23.30;;;16.60;;
16115;SDS011;8162;47.104;15.432;2023-03-01T11:28:27;21.63;;;16.70;;
16115;SDS011;8162;47.104;15.432;2023-03-01T11:31:29;22.87;;;16.60;;
16115;SDS011;8162;47.104;15.432;2023-03-01T11:44:43;22.53;;;15.60;;
16115;SDS011;8162;47.104;15.432;2023-03-01T11:51:18;24.03;;;15.87;;
16115;SDS011;8162;47.104;15.432;2023-03-01T12:08:20;20.63;;;15.20;;
16115;SDS011;8162;47.104;15.432;2023-03-01T12:21:30;22.13;;;15.27;;
16115;SDS011;8162;47.104;15.432;2023-03-01T12:28:08;23.43;;;16.17;;
16115;SDS011;8162;47.104;15.432;2023-03-01T12:31:29;24.37;;;17.07;;
16115;SDS011;8162;47.104;15.432;2023-03-01T12:38:19;21.17;;;13.97;;
16115;SDS011;8162;47.104;15.432;2023-03-01T12:41:48;17.90;;;14.27;;
16115;SDS011;8162;47.104;15.432;2023-03-01T12:45:16;21.20;;;14.80;;
16115;SDS011;8162;47.104;15.432;2023-03-01T12:52:11;18.53;;;13.37;;
16115;SDS011;8162;47.104;15.432;2023-03-01T13:01:47;18.23;;;13.30;;
16115;SDS011;8162;47.104;15.432;2023-03-01T13:11:34;19.20;;;13.17;;
16115;SDS011;8162;47.104;15.432;2023-03-01T13:14:35;19.33;;;13.17;;
16115;SDS011;8162;47.104;15.432;2023-03-01T13:17:41;17.17;;;13.63;;
16115;SDS011;8162;47.104;15.432;2023-03-01T13:23:47;19.37;;;12.60;;
16115;SDS011;8162;47.104;15.432;2023-03-01T13:30:52;15.77;;;12.40;;
16115;SDS011;8162;47.104;15.432;2023-03-01T13:36:47;17.50;;;12.73;;
16115;SDS011;8162;47.104;15.432;2023-03-01T13:39:49;17.07;;;11.87;;
16115;SDS011;8162;47.104;15.432;2023-03-01T13:42:50;14.93;;;11.80;;
16115;SDS011;8162;47.104;15.432;2023-03-01T13:45:53;21.17;;;12.97;;
16115;SDS011;8162;47.104;15.432;2023-03-01T13:48:54;16.53;;;11.83;;
16115;SDS011;8162;47.104;15.432;2023-03-01T13:51:57;19.17;;;13.83;;
16115;SDS011;8162;47.104;15.432;2023-03-01T13:54:58;18.23;;;13.30;;
16115;SDS011;8162;47.104;15.432;2023-03-01T13:58:01;17.23;;;12.37;;
16115;SDS011;8162;47.104;15.432;2023-03-01T14:01:05;17.03;;;12.07;;
16115;SDS011;8162;47.104;15.432;2023-03-01T14:07:26;15.77;;;12.27;;
16115;SDS011;8162;47.104;15.432;2023-03-01T14:10:43;21.17;;;13.60;;
16115;SDS011;8162;47.104;15.432;2023-03-01T14:20:27;16.37;;;11.27;;
16115;SDS011;8162;47.104;15.432;2023-03-01T14:23:32;15.90;;;11.93;;
16115;SDS011;8162;47.104;15.432;2023-03-01T14:26:35;16.33;;;12.40;;
16115;SDS011;8162;47.104;15.432;2023-03-01T14:29:37;16.93;;;12.07;;
16115;SDS011;8162;47.104;15.432;2023-03-01T14:32:39;16.03;;;11.33;;
16115;SDS011;8162;47.104;15.432;2023-03-01T14:35:40;14.23;;;11.93;;
16115;SDS011;8162;47.104;15.432;2023-03-01T14:38:45;15.40;;;12.10;;
16115;SDS011;8162;47.104;15.432;2023-03-01T14:41:47;16.60;;;12.20;;
16115;SDS011;8162;47.104;15.432;2023-03-01T14:44:49;17.80;;;11.23;;
16115;SDS011;8162;47.104;15.432;2023-03-01T14:47:51;15.17;;;12.40;;
16115;SDS011;8162;47.104;15.432;2023-03-01T14:50:53;14.90;;;11.23;;
16115;SDS011;8162;47.104;15.432;2023-03-01T14:53:54;14.63;;;11.30;;
16115;SDS011;8162;47.104;15.432;2023-03-01T14:56:59;13.87;;;10.47;;
16115;SDS011;8162;47.104;15.432;2023-03-01T15:00:03;15.63;;;11.43;;
16115;SDS011;8162;47.104;15.432;2023-03-01T15:03:13;15.40;;;11.73;;
16115;SDS011;8162;47.104;15.432;2023-03-01T15:06:20;13.33;;;9.93;;
16115;SDS011;8162;47.104;15.432;2023-03-01T15:09:23;16.53;;;11.23;;
16115;SDS011;8162;47.104;15.432;2023-03-01T15:12:45;16.03;;;10.93;;
16115;SDS011;8162;47.104;15.432;2023-03-01T15:15:44;13.70;;;10.17;;
16115;SDS011;8162;47.104;15.432;2023-03-01T15:18:48;14.37;;;10.40;;
16115;SDS011;8162;47.104;15.432;2023-03-01T15:22:14;13.80;;;10.57;;
16115;SDS011;8162;47.104;15.432;2023-03-01T15:25:20;13.17;;;10.27;;
16115;SDS011;8162;47.104;15.432;2023-03-01T15:28:24;13.83;;;10.63;;
16115;SDS011;8162;47.104;15.432;2023-03-01T15:31:29;16.20;;;11.63;;
16115;SDS011;8162;47.104;15.432;2023-03-01T15:34:36;14.67;;;10.50;;
16115;SDS011;8162;47.104;15.432;2023-03-01T15:37:39;15.87;;;11.07;;
16115;SDS011;8162;47.104;15.432;2023-03-01T15:40:48;14.83;;;10.93;;
16115;SDS011;8162;47.104;15.432;2023-03-01T15:43:50;16.60;;;11.47;;
16115;SDS011;8162;47.104;15.432;2023-03-01T15:46:54;14.77;;;10.83;;
16115;SDS011;8162;47.104;15.432;2023-03-01T15:49:54;17.97;;;11.97;;
16115;SDS011;8162;47.104;15.432;2023-03-01T15:52:58;18.13;;;12.70;;
16115;SDS011;8162;47.104;15.432;2023-03-01T15:56:00;18.27;;;13.07;;
16115;SDS011;8162;47.104;15.432;2023-03-01T15:59:01;16.33;;;11.97;;
16115;SDS011;8162;47.104;15.432;2023-03-01T16:02:08;19.93;;;13.47;;
16115;SDS011;8162;47.104;15.432;2023-03-01T16:05:20;18.73;;;12.53;;
16115;SDS011;8162;47.104;15.432;2023-03-01T16:08:24;17.63;;;12.13;;
16115;SDS011;8162;47.104;15.432;2023-03-01T16:11:25;17.13;;;13.57;;
16115;SDS011;8162;47.104;15.432;2023-03-01T16:14:25;20.63;;;15.17;;
16115;SDS011;8162;47.104;15.432;2023-03-01T16:17:26;16.77;;;13.07;;
16115;SDS011;8162;47.104;15.432;2023-03-01T16:20:28;16.63;;;12.70;;
16115;SDS011;8162;47.104;15.432;2023-03-01T16:23:29;19.73;;;12.80;;
16115;SDS011;8162;47.104;15.432;2023-03-01T16:26:30;20.17;;;13.07;;
16115;SDS011;8162;47.104;15.432;2023-03-01T16:29:31;16.33;;;12.57;;
16115;SDS011;8162;47.104;15.432;2023-03-01T16:32:32;19.13;;;12.80;;
16115;SDS011;8162;47.104;15.432;2023-03-01T16:35:33;15.53;;;12.10;;
16115;SDS011;8162;47.104;15.432;2023-03-01T16:38:39;17.60;;;12.57;;
16115;SDS011;8162;47.104;15.432;2023-03-01T16:41:40;17.37;;;12.97;;
16115;SDS011;8162;47.104;15.432;2023-03-01T16:44:41;17.00;;;12.30;;
16115;SDS011;8162;47.104;15.432;2023-03-01T16:47:42;18.77;;;13.07;;
16115;SDS011;8162;47.104;15.432;2023-03-01T16:50:43;20.00;;;12.23;;
16115;SDS011;8162;47.104;15.432;2023-03-01T16:53:44;19.03;;;12.67;;
16115;SDS011;8162;47.104;15.432;2023-03-01T16:56:45;15.30;;;12.27;;
16115;SDS011;8162;47.104;15.432;2023-03-01T16:59:46;14.97;;;11.90;;
16115;SDS011;8162;47.104;15.432;2023-03-01T17:02:47;16.60;;;11.87;;
16115;SDS011;8162;47.104;15.432;2023-03-01T17:05:48;18.20;;;13.73;;
16115;SDS011;8162;47.104;15.432;2023-03-01T17:08:50;17.67;;;13.00;;
16115;SDS011;8162;47.104;15.432;2023-03-01T17:11:51;20.27;;;14.20;;
16115;SDS011;8162;47.104;15.432;2023-03-01T17:14:51;20.67;;;13.63;;
16115;SDS011;8162;47.104;15.432;2023-03-01T17:17:52;19.60;;;13.30;;
16115;SDS011;8162;47.104;15.432;2023-03-01T17:20:53;17.30;;;12.77;;
16115;SDS011;8162;47.104;15.432;2023-03-01T17:23:55;19.73;;;13.10;;
16115;SDS011;8162;47.104;15.432;2023-03-01T17:26:56;20.07;;;13.40;;
16115;SDS011;8162;47.104;15.432;2023-03-01T17:29:57;18.40;;;12.63;;
16115;SDS011;8162;47.104;15.432;2023-03-01T17:32:59;19.23;;;14.10;;
16115;SDS011;8162;47.104;15.432;2023-03-01T17:36:00;18.43;;;14.23;;
16115;SDS011;8162;47.104;15.432;2023-03-01T17:39:01;20.47;;;13.80;;
16115;SDS011;8162;47.104;15.432;2023-03-01T17:42:03;21.67;;;14.97;;
16115;SDS011;8162;47.104;15.432;2023-03-01T17:45:06;23.27;;;16.30;;
16115;SDS011;8162;47.104;15.432;2023-03-01T17:48:07;20.30;;;14.47;;
16115;SDS011;8162;47.104;15.432;2023-03-01T17:51:09;20.37;;;14.60;;
16115;SDS011;8162;47.104;15.432;2023-03-01T17:54:11;21.77;;;14.53;;
16115;SDS011;8162;47.104;15.432;2023-03-01T17:57:12;21.17;;;15.63;;
16115;SDS011;8162;47.104;15.432;2023-03-01T18:00:15;21.73;;;14.80;;
16115;SDS011;8162;47.104;15.432;2023-03-01T18:03:17;21.23;;;14.60;;
16115;SDS011;8162;47.104;15.432;2023-03-01T18:06:25;21.43;;;14.97;;
16115;SDS011;8162;47.104;15.432;2023-03-01T18:09:27;23.03;;;14.57;;
16115;SDS011;8162;47.104;15.432;2023-03-01T18:12:29;19.20;;;14.50;;
16115;SDS011;8162;47.104;15.432;2023-03-01T18:15:32;22.03;;;15.27;;
16115;SDS011;8162;47.104;15.432;2023-03-01T18:18:34;20.77;;;14.63;;
16115;SDS011;8162;47.104;15.432;2023-03-01T18:21:35;20.57;;;14.20;;
16115;SDS011;8162;47.104;15.432;2023-03-01T18:24:36;22.87;;;15.90;;
16115;SDS011;8162;47.104;15.432;2023-03-01T18:27:38;24.57;;;16.83;;
16115;SDS011;8162;47.104;15.432;2023-03-01T18:30:39;22.67;;;14.63;;
16115;SDS011;8162;47.104;15.432;2023-03-01T18:33:40;21.97;;;15.13;;
16115;SDS011;8162;47.104;15.432;2023-03-01T18:36:41;21.63;;;15.83;;
16115;SDS011;8162;47.104;15.432;2023-03-01T18:39:42;23.93;;;16.87;;
16115;SDS011;8162;47.104;15.432;2023-03-01T18:42:43;22.43;;;16.77;;
16115;SDS011;8162;47.104;15.432;2023-03-01T18:45:44;23.07;;;15.97;;
16115;SDS011;8162;47.104;15.432;2023-03-01T18:48:45;21.83;;;15.50;;
16115;SDS011;8162;47.104;15.432;2023-03-01T18:51:47;23.10;;;16.60;;
16115;SDS011;8162;47.104;15.432;2023-03-01T18:54:49;23.93;;;17.17;;
16115;SDS011;8162;47.104;15.432;2023-03-01T18:57:50;26.57;;;17.23;;
16115;SDS011;8162;47.104;15.432;2023-03-01T19:00:52;24.13;;;17.23;;
16115;SDS011;8162;47.104;15.432;2023-03-01T19:03:53;23.37;;;17.07;;
16115;SDS011;8162;47.104;15.432;2023-03-01T19:06:58;28.53;;;17.87;;
16115;SDS011;8162;47.104;15.432;2023-03-01T19:10:01;26.23;;;18.23;;
16115;SDS011;8162;47.104;15.432;2023-03-01T19:13:02;23.83;;;16.47;;
16115;SDS011;8162;47.104;15.432;2023-03-01T19:16:04;24.00;;;16.97;;
16115;SDS011;8162;47.104;15.432;2023-03-01T19:19:18;27.70;;;17.80;;
16115;SDS011;8162;47.104;15.432;2023-03-01T19:22:19;27.60;;;18.20;;
16115;SDS011;8162;47.104;15.432;2023-03-01T19:25:20;23.27;;;16.70;;
16115;SDS011;8162;47.104;15.432;2023-03-01T19:28:22;26.10;;;18.27;;
16115;SDS011;8162;47.104;15.432;2023-03-01T19:31:23;25.27;;;16.37;;
16115;SDS011;8162;47.104;15.432;2023-03-01T19:34:27;23.10;;;16.70;;
16115;SDS011;8162;47.104;15.432;2023-03-01T19:37:29;28.67;;;17.50;;
16115;SDS011;8162;47.104;15.432;2023-03-01T19:40:34;25.93;;;17.53;;
16115;SDS011;8162;47.104;15.432;2023-03-01T19:43:36;31.37;;;19.67;;